Richard E. Waugh — WDB8734 — position and weather

sailwx.info

Track history (hours):
 
Tides and Currents Weather Stations Pressure Air Temp Water Temp Dewpoint Dewpoint Depression Visibility Wind Speed Wind Dir Waves Ship Positions

Richard E. Waugh

Owner: Ingram Barge Company LLC, Nashville, TN. More information available from US FCC via Universal Licensing System and Coast Guard Vessel Documentation Center.

Last reported at 2018-Apr-30 23:15 UTC. Time now 2018-Jun-22 13:24 UTC.
Position N 39°08' W 090°42'.
Warning: this ship's position is 52 days out of date.

Length 48 m; draft 3 m.

Type: Towing. MMSI: 366963390.

Date/timePositionNaut miles runAvg speedWind from/ knotsBaromVisibWave heightAir tempDewpointWater temp
2018-Apr-30 23:15N 39°08' W 090°42'4 4.0
2018-Apr-30 22:10N 39°04' W 090°42'0 2.3
2018-Apr-30 21:57N 39°04' W 090°43'2 3.4
2018-Apr-30 21:30N 39°02' W 090°42'2 4.0
2018-Apr-30 21:00N 39°00' W 090°41'0 0.0
2018-Apr-30 20:30N 39°00' W 090°41'0 0.3
2018-Apr-30 20:00N 39°00' W 090°41'0 0.0
2018-Apr-30 19:30N 39°00' W 090°41'0 0.8
2018-Apr-30 19:00N 38°60' W 090°41'2 4.7
2018-Apr-30 18:29N 38°57' W 090°40'2 5.1
2018-Apr-30 18:00N 38°55' W 090°39'3 5.0
2018-Apr-30 17:30N 38°53' W 090°37'2 4.8
2018-Apr-30 17:00N 38°52' W 090°35'2 4.9
2018-Apr-30 16:30N 38°53' W 090°32'2 4.8
2018-Apr-30 16:00N 38°55' W 090°30'2 4.5
2018-Apr-30 15:30N 38°57' W 090°28'2 4.5
2018-Apr-30 15:00N 38°58' W 090°26'2 4.3
2018-Apr-30 14:30N 38°57' W 090°23'2 4.2
2018-Apr-30 14:00N 38°56' W 090°21'2 5.0
2018-Apr-30 13:30N 38°55' W 090°18'2 4.2
2018-Apr-30 13:00N 38°55' W 090°15'2 4.3
2018-Apr-30 12:30N 38°54' W 090°13'2 4.3
2018-Apr-30 12:00N 38°53' W 090°10'1 2.6
2018-Apr-30 11:30N 38°52' W 090°09'1 1.8
2018-Apr-30 11:00N 38°52' W 090°08'0 0.8
2018-Apr-30 10:30N 38°51' W 090°07'0 0.0
2018-Apr-30 10:00N 38°51' W 090°07'0 0.0
2018-Apr-30 09:30N 38°51' W 090°07'0 0.0
2018-Apr-30 09:00N 38°51' W 090°07'0 0.0
2018-Apr-30 08:30N 38°51' W 090°07'0 0.0
2018-Apr-30 08:00N 38°51' W 090°07'0 0.0
2018-Apr-30 07:30N 38°51' W 090°07'0 0.1
2018-Apr-30 07:00N 38°51' W 090°08'0 0.1
2018-Apr-30 06:30N 38°51' W 090°08'0 0.0
2018-Apr-30 06:00N 38°51' W 090°08'1 2.1
2018-Apr-30 05:30N 38°51' W 090°07'2 4.5
2018-Apr-30 05:00N 38°49' W 090°07'3 2.9
2018-Apr-30 04:00N 38°46' W 090°08'2 4.1
2018-Apr-30 03:30N 38°44' W 090°10'2 3.3
2018-Apr-30 03:00N 38°43' W 090°11'1 1.2
2018-Apr-30 02:28N 38°42' W 090°11'0 1.0
2018-Apr-30 02:00N 38°42' W 090°11'0 0.6
2018-Apr-30 01:30N 38°41' W 090°11'1 0.2
2018-Apr-29 17:22N 38°40' W 090°11'11 3.2
2018-Apr-29 14:03N 38°50' W 090°06'1 7.1
2018-Apr-29 13:58N 38°51' W 090°06'2 5.2
2018-Apr-29 13:29N 38°52' W 090°09'0 0.2
2018-Apr-29 13:00N 38°52' W 090°09'0 0.8
2018-Apr-29 12:30N 38°52' W 090°10'3 6.0
2018-Apr-29 12:00N 38°54' W 090°13'2 3.2
2018-Apr-29 11:30N 38°55' W 090°14'0 0.1
2018-Apr-29 11:00N 38°55' W 090°14'2 3.6
2018-Apr-29 10:30N 38°55' W 090°17'3 6.2
2018-Apr-29 10:00N 38°56' W 090°20'3 6.4
2018-Apr-29 09:30N 38°58' W 090°24'3 6.2
2018-Apr-29 09:00N 38°57' W 090°28'3 6.3
2018-Apr-29 08:30N 38°55' W 090°31'3 6.3
2018-Apr-29 08:00N 38°52' W 090°33'3 6.2
2018-Apr-29 07:30N 38°53' W 090°37'3 6.5
2018-Apr-29 07:00N 38°55' W 090°40'3 6.8
2018-Apr-29 06:30N 38°59' W 090°40'2 3.5
2018-Apr-29 06:00N 39°00' W 090°41'0 0.1
2018-Apr-29 05:30N 39°00' W 090°41'0 0.2
2018-Apr-29 05:00N 39°00' W 090°41'0 0.3
2018-Apr-29 04:30N 39°00' W 090°42'2 3.9
2018-Apr-29 04:00N 39°02' W 090°42'1 0.7
2018-Apr-29 03:04N 39°03' W 090°43'0 0.0
2018-Apr-29 03:00N 39°03' W 090°43'1 1.7
2018-Apr-29 02:30N 39°04' W 090°43'  
Track history (hours):
 
Tides and Currents Weather Stations Pressure Air Temp Water Temp Dewpoint Dewpoint Depression Visibility Wind Speed Wind Dir Waves Ship Positions

Richard E. Waugh

Owner: Ingram Barge Company LLC, Nashville, TN. More information available from US FCC via Universal Licensing System and Coast Guard Vessel Documentation Center.

Last reported at 2018-Apr-30 23:15 UTC. Time now 2018-Jun-22 13:24 UTC.
Position N 39°08' W 090°42'.
Warning: this ship's position is 52 days out of date.

Length 48 m; draft 3 m.

Type: Towing. MMSI: 366963390.

Date/timePositionNaut miles runAvg speedWind from/ knotsBaromVisibWave heightAir tempDewpointWater temp
2018-Apr-30 23:15N 39°08' W 090°42'4 4.0
2018-Apr-30 22:10N 39°04' W 090°42'0 2.3
2018-Apr-30 21:57N 39°04' W 090°43'2 3.4
2018-Apr-30 21:30N 39°02' W 090°42'2 4.0
2018-Apr-30 21:00N 39°00' W 090°41'0 0.0
2018-Apr-30 20:30N 39°00' W 090°41'0 0.3
2018-Apr-30 20:00N 39°00' W 090°41'0 0.0
2018-Apr-30 19:30N 39°00' W 090°41'0 0.8
2018-Apr-30 19:00N 38°60' W 090°41'2 4.7
2018-Apr-30 18:29N 38°57' W 090°40'2 5.1
2018-Apr-30 18:00N 38°55' W 090°39'3 5.0
2018-Apr-30 17:30N 38°53' W 090°37'2 4.8
2018-Apr-30 17:00N 38°52' W 090°35'2 4.9
2018-Apr-30 16:30N 38°53' W 090°32'2 4.8
2018-Apr-30 16:00N 38°55' W 090°30'2 4.5
2018-Apr-30 15:30N 38°57' W 090°28'2 4.5
2018-Apr-30 15:00N 38°58' W 090°26'2 4.3
2018-Apr-30 14:30N 38°57' W 090°23'2 4.2
2018-Apr-30 14:00N 38°56' W 090°21'2 5.0
2018-Apr-30 13:30N 38°55' W 090°18'2 4.2
2018-Apr-30 13:00N 38°55' W 090°15'2 4.3
2018-Apr-30 12:30N 38°54' W 090°13'2 4.3
2018-Apr-30 12:00N 38°53' W 090°10'1 2.6
2018-Apr-30 11:30N 38°52' W 090°09'1 1.8
2018-Apr-30 11:00N 38°52' W 090°08'0 0.8
2018-Apr-30 10:30N 38°51' W 090°07'0 0.0
2018-Apr-30 10:00N 38°51' W 090°07'0 0.0
2018-Apr-30 09:30N 38°51' W 090°07'0 0.0
2018-Apr-30 09:00N 38°51' W 090°07'0 0.0
2018-Apr-30 08:30N 38°51' W 090°07'0 0.0
2018-Apr-30 08:00N 38°51' W 090°07'0 0.0
2018-Apr-30 07:30N 38°51' W 090°07'0 0.1
2018-Apr-30 07:00N 38°51' W 090°08'0 0.1
2018-Apr-30 06:30N 38°51' W 090°08'0 0.0
2018-Apr-30 06:00N 38°51' W 090°08'1 2.1
2018-Apr-30 05:30N 38°51' W 090°07'2 4.5
2018-Apr-30 05:00N 38°49' W 090°07'3 2.9
2018-Apr-30 04:00N 38°46' W 090°08'2 4.1
2018-Apr-30 03:30N 38°44' W 090°10'2 3.3
2018-Apr-30 03:00N 38°43' W 090°11'1 1.2
2018-Apr-30 02:28N 38°42' W 090°11'0 1.0
2018-Apr-30 02:00N 38°42' W 090°11'0 0.6
2018-Apr-30 01:30N 38°41' W 090°11'1 0.2
2018-Apr-29 17:22N 38°40' W 090°11'11 3.2
2018-Apr-29 14:03N 38°50' W 090°06'1 7.1
2018-Apr-29 13:58N 38°51' W 090°06'2 5.2
2018-Apr-29 13:29N 38°52' W 090°09'0 0.2
2018-Apr-29 13:00N 38°52' W 090°09'0 0.8
2018-Apr-29 12:30N 38°52' W 090°10'3 6.0
2018-Apr-29 12:00N 38°54' W 090°13'2 3.2
2018-Apr-29 11:30N 38°55' W 090°14'0 0.1
2018-Apr-29 11:00N 38°55' W 090°14'2 3.6
2018-Apr-29 10:30N 38°55' W 090°17'3 6.2
2018-Apr-29 10:00N 38°56' W 090°20'3 6.4
2018-Apr-29 09:30N 38°58' W 090°24'3 6.2
2018-Apr-29 09:00N 38°57' W 090°28'3 6.3
2018-Apr-29 08:30N 38°55' W 090°31'3 6.3
2018-Apr-29 08:00N 38°52' W 090°33'3 6.2
2018-Apr-29 07:30N 38°53' W 090°37'3 6.5
2018-Apr-29 07:00N 38°55' W 090°40'3 6.8
2018-Apr-29 06:30N 38°59' W 090°40'2 3.5
2018-Apr-29 06:00N 39°00' W 090°41'0 0.1
2018-Apr-29 05:30N 39°00' W 090°41'0 0.2
2018-Apr-29 05:00N 39°00' W 090°41'0 0.3
2018-Apr-29 04:30N 39°00' W 090°42'2 3.9
2018-Apr-29 04:00N 39°02' W 090°42'1 0.7
2018-Apr-29 03:04N 39°03' W 090°43'0 0.0
2018-Apr-29 03:00N 39°03' W 090°43'1 1.7
2018-Apr-29 02:30N 39°04' W 090°43'  

Dump ship's entire track history